createdAt,value
2022-11-28T00:02:06.631Z,101161.28
2022-11-28T00:04:36.063Z,101160.38
2022-11-28T00:07:05.639Z,101166.47
2022-11-28T00:09:35.093Z,101177.34
2022-11-28T00:12:04.545Z,101163.59
2022-11-28T00:14:36.583Z,101156.47
2022-11-28T00:17:05.976Z,101141.13
2022-11-28T00:19:35.345Z,101146.38
2022-11-28T00:22:04.892Z,101157.13
2022-11-28T00:24:34.305Z,101153.91
2022-11-28T00:27:03.687Z,101144.72
2022-11-28T00:29:35.704Z,101149.81
2022-11-28T00:32:05.132Z,101153.69
2022-11-28T00:34:35.113Z,101145.78
2022-11-28T00:37:04.585Z,101148.47
2022-11-28T00:39:33.981Z,101147.91
2022-11-28T00:42:03.450Z,101147.81
2022-11-28T00:44:32.906Z,101143.81
2022-11-28T00:47:05.061Z,101141.03
2022-11-28T00:49:34.570Z,101141.56
2022-11-28T00:52:03.930Z,101147.34
2022-11-28T00:54:33.339Z,101139.16
2022-11-28T00:57:02.804Z,101135.56
2022-11-28T00:59:32.182Z,101130.91
2022-11-28T01:02:01.698Z,101130.91
2022-11-28T01:04:33.675Z,101133.13
2022-11-28T01:07:03.088Z,101124.91
2022-11-28T01:09:32.477Z,101119.78
2022-11-28T01:12:01.957Z,101120.25
2022-11-28T01:14:31.932Z,101108.72
2022-11-28T01:17:01.423Z,101117.94
2022-11-28T01:19:33.534Z,101112.56
2022-11-28T01:22:02.909Z,101112.72
2022-11-28T01:24:32.333Z,101096.50
2022-11-28T01:27:01.827Z,101097.38
2022-11-28T01:29:31.266Z,101097.03
2022-11-28T01:32:00.736Z,101089.59
2022-11-28T01:34:32.792Z,101086.81
2022-11-28T01:37:02.612Z,101094.03
2022-11-28T01:39:32.173Z,101085.81
2022-11-28T01:42:01.599Z,101094.69
2022-11-28T01:45:04.349Z,101087.38
2022-11-28T01:47:34.175Z,101074.06
2022-11-28T01:50:07.133Z,101061.63
2022-11-28T01:52:36.997Z,101066.94
2022-11-28T01:55:07.130Z,101058.28
2022-11-28T01:57:36.789Z,101052.19
2022-11-28T02:00:10.410Z,101056.50
2022-11-28T02:02:42.804Z,101040.59
2022-11-28T02:05:14.847Z,101041.63
2022-11-28T02:07:44.818Z,101018.28
2022-11-28T02:10:16.427Z,101000.47
2022-11-28T02:13:13.349Z,100999.59
2022-11-28T02:16:07.691Z,101004.41
2022-11-28T02:18:50.321Z,100990.88
2022-11-28T02:21:41.675Z,100976.53
2022-11-28T02:24:35.824Z,100954.53
2022-11-28T02:27:18.752Z,100954.31
2022-11-28T02:30:01.689Z,100941.31
2022-11-28T02:33:06.353Z,100937.34
2022-11-28T02:35:39.338Z,100924.78
2022-11-28T02:38:17.422Z,100911.25
2022-11-28T02:40:54.635Z,100916.38
2022-11-28T02:43:27.703Z,100918.13
2022-11-28T02:46:00.828Z,100912.66
2022-11-28T02:48:35.040Z,100912.31
2022-11-28T02:51:09.038Z,100914.25
2022-11-28T02:53:39.654Z,100920.47
2022-11-28T02:56:09.378Z,100918.13
2022-11-28T02:58:39.536Z,100922.59
2022-11-28T03:01:12.526Z,100911.03
2022-11-28T03:04:11.946Z,100907.81
2022-11-28T03:06:51.670Z,100906.28
2022-11-28T03:09:53.369Z,100904.50
2022-11-28T03:12:28.231Z,100909.94
2022-11-28T03:14:59.282Z,100916.13
2022-11-28T03:17:36.754Z,100916.13
2022-11-28T03:20:17.155Z,100927.91
2022-11-28T03:22:58.043Z,100925.22
2022-11-28T03:25:30.687Z,100915.78
2022-11-28T03:28:04.187Z,100913.91
2022-11-28T03:30:38.994Z,100910.59
2022-11-28T03:33:09.691Z,100922.47
2022-11-28T03:35:42.474Z,100916.00
2022-11-28T03:38:16.399Z,100922.59
2022-11-28T03:40:47.861Z,100926.13
2022-11-28T03:43:19.708Z,100937.53
2022-11-28T03:45:51.840Z,100947.22
2022-11-28T03:48:24.557Z,100946.78
2022-11-28T03:50:58.009Z,100946.34
2022-11-28T03:53:33.675Z,100955.78
2022-11-28T03:56:06.145Z,100943.59
2022-11-28T03:58:39.472Z,100939.34
2022-11-28T04:01:12.207Z,100925.03
2022-11-28T04:03:48.663Z,100931.16
2022-11-28T04:06:21.082Z,100929.06
2022-11-28T04:08:59.054Z,100951.38
2022-11-28T04:11:31.240Z,100947.03
2022-11-28T04:14:05.202Z,100960.81
2022-11-28T04:16:37.885Z,100953.69
2022-11-28T04:19:12.623Z,100945.72
2022-11-28T04:21:46.256Z,100954.38
2022-11-28T04:24:21.932Z,100943.06
2022-11-28T04:26:54.899Z,100943.50
2022-11-28T04:29:26.855Z,100938.16
2022-11-28T04:31:58.802Z,100934.38
2022-11-28T04:34:29.021Z,100935.94
2022-11-28T04:37:05.480Z,100933.41
2022-11-28T04:39:41.141Z,100952.47
2022-11-28T04:42:13.507Z,100952.13
2022-11-28T04:44:47.279Z,100963.03
2022-11-28T04:47:17.192Z,100965.47
2022-11-28T04:49:47.036Z,100968.69
2022-11-28T04:52:19.056Z,100972.03
2022-11-28T04:54:56.014Z,100962.00
2022-11-28T04:57:29.809Z,100952.25
2022-11-28T04:59:59.579Z,100958.13
2022-11-28T05:02:30.460Z,100951.03
2022-11-28T05:05:00.122Z,100952.59
2022-11-28T05:07:29.801Z,100947.47
2022-11-28T05:10:01.813Z,100939.94
2022-11-28T05:12:31.237Z,100941.16
2022-11-28T05:15:00.613Z,100935.72
2022-11-28T05:17:30.116Z,100943.03
2022-11-28T05:19:59.770Z,100957.91
2022-11-28T05:22:29.196Z,100967.66
2022-11-28T05:25:01.544Z,100973.69
2022-11-28T05:27:30.998Z,100989.19
2022-11-28T05:30:00.400Z,100986.31
2022-11-28T05:32:32.104Z,100984.34
2022-11-28T05:35:01.708Z,100981.44
2022-11-28T05:37:31.237Z,100991.53
2022-11-28T05:40:03.560Z,100996.75
2022-11-28T05:42:35.235Z,100992.31
2022-11-28T05:45:05.342Z,100976.44
2022-11-28T05:47:35.492Z,100985.44
2022-11-28T05:50:04.847Z,100988.78
2022-11-28T05:52:34.299Z,100987.34
2022-11-28T05:55:06.888Z,100988.31
2022-11-28T05:57:36.350Z,100979.31
2022-11-28T06:00:06.536Z,100990.22
2022-11-28T06:02:38.168Z,100964.34
2022-11-28T06:05:27.646Z,100950.38
2022-11-28T06:07:57.656Z,100950.38
2022-11-28T06:10:29.661Z,100948.38
2022-11-28T06:12:59.071Z,100941.69
2022-11-28T06:15:28.544Z,100942.59
2022-11-28T06:17:58.562Z,100945.38
2022-11-28T06:20:28.068Z,100955.03
2022-11-28T06:22:57.448Z,100955.03
2022-11-28T06:25:29.460Z,100966.78
2022-11-28T06:27:58.813Z,100949.13
2022-11-28T06:30:28.310Z,100929.63
2022-11-28T06:32:57.734Z,100917.19
2022-11-28T06:35:27.142Z,100923.16
2022-11-28T06:37:56.529Z,100919.75
2022-11-28T06:40:26.514Z,100924.31
2022-11-28T06:42:58.511Z,100917.97
2022-11-28T06:45:27.950Z,100934.63
2022-11-28T06:47:57.406Z,100936.50
2022-11-28T06:50:26.770Z,100938.16
2022-11-28T06:52:57.055Z,100934.81
2022-11-28T06:55:26.415Z,100945.47
2022-11-28T06:57:58.411Z,100951.69
2022-11-28T07:00:28.211Z,100950.81
2022-11-28T07:02:58.257Z,100954.69
2022-11-28T07:05:28.567Z,100952.16
2022-11-28T07:07:57.967Z,100949.03
2022-11-28T07:10:28.126Z,100953.13
2022-11-28T07:13:05.222Z,100953.13
2022-11-28T07:15:35.064Z,100965.25
2022-11-28T07:18:04.440Z,100970.66
2022-11-28T07:20:33.853Z,100973.78
2022-11-28T07:23:03.215Z,100963.47
2022-11-28T07:25:32.577Z,100973.34
2022-11-28T07:28:04.928Z,100972.13
2022-11-28T07:30:34.394Z,100969.13
2022-11-28T07:33:03.774Z,100963.56
2022-11-28T07:35:33.242Z,100953.47
2022-11-28T07:38:02.817Z,100950.25
2022-11-28T07:40:32.180Z,100960.34
2022-11-28T07:43:01.616Z,100959.69
2022-11-28T07:45:53.896Z,100962.69
2022-11-28T07:48:22.944Z,100965.00
2022-11-28T07:50:52.332Z,100970.47
2022-11-28T07:53:22.124Z,100965.44
2022-11-28T07:55:51.527Z,100974.66
2022-11-28T07:58:22.155Z,100978.44
2022-11-28T08:00:54.425Z,100975.22
2022-11-28T08:03:23.920Z,100976.75
2022-11-28T08:05:53.378Z,100972.56
2022-11-28T08:08:22.997Z,100979.09
2022-11-28T08:10:52.441Z,100972.13
2022-11-28T08:13:21.916Z,100974.88
2022-11-28T08:15:53.993Z,100974.44
2022-11-28T08:18:23.414Z,100972.78
2022-11-28T08:20:52.885Z,100984.69
2022-11-28T08:23:22.390Z,100979.44
2022-11-28T08:25:51.834Z,100980.53
2022-11-28T08:28:21.281Z,100977.19
2022-11-28T08:30:50.748Z,100979.97
2022-11-28T08:33:22.881Z,100976.22
2022-11-28T08:35:52.387Z,100989.91
2022-11-28T08:38:23.418Z,100991.44
2022-11-28T08:40:52.939Z,100985.41
2022-11-28T08:43:22.322Z,100990.53
2022-11-28T08:45:51.825Z,100990.53
2022-11-28T08:48:23.816Z,100992.13
2022-11-28T08:50:54.290Z,100990.53
2022-11-28T08:53:24.079Z,100999.44
2022-11-28T08:55:54.104Z,100999.63
2022-11-28T08:58:23.477Z,101002.78
2022-11-28T09:00:52.884Z,101005.88
2022-11-28T09:03:25.011Z,101008.75
2022-11-28T09:05:55.590Z,101008.53
2022-11-28T09:08:25.069Z,101005.84
2022-11-28T09:10:54.517Z,101009.84
2022-11-28T09:13:23.924Z,101015.88
2022-11-28T09:15:53.912Z,101020.50
2022-11-28T09:18:27.142Z,101026.50
2022-11-28T09:21:00.653Z,101033.81
2022-11-28T09:23:30.892Z,101027.50
2022-11-28T09:26:00.492Z,101031.41
2022-11-28T09:28:29.939Z,101027.38
2022-11-28T09:31:04.130Z,101030.94
2022-11-28T09:33:36.862Z,101032.94
2022-11-28T09:36:10.395Z,101048.81
2022-11-28T09:38:40.534Z,101047.63
2022-11-28T09:41:39.452Z,101060.94
2022-11-28T09:44:12.320Z,101052.94
2022-11-28T09:46:42.417Z,101061.94
2022-11-28T09:49:22.379Z,101047.63
2022-11-28T09:51:55.263Z,101056.38
2022-11-28T09:54:30.518Z,101056.06
2022-11-28T09:57:00.085Z,101053.84
2022-11-28T09:59:31.180Z,101053.63
2022-11-28T10:02:10.126Z,101053.94
2022-11-28T10:04:47.774Z,101052.72
2022-11-28T10:07:22.900Z,101051.28
2022-11-28T10:09:58.704Z,101039.63
2022-11-28T10:12:40.457Z,101047.06
2022-11-28T10:15:16.724Z,101046.06
2022-11-28T10:17:52.705Z,101044.28
2022-11-28T10:20:27.067Z,101044.72
2022-11-28T10:22:59.604Z,101033.38
2022-11-28T10:25:32.126Z,101041.28
2022-11-28T10:28:01.725Z,101033.81
2022-11-28T10:30:34.378Z,101032.72
2022-11-28T10:33:06.812Z,101035.63
2022-11-28T10:35:44.603Z,101035.63
2022-11-28T10:38:15.822Z,101032.03
2022-11-28T10:40:51.364Z,101031.25
2022-11-28T10:43:30.636Z,101034.72
2022-11-28T10:46:08.150Z,101034.47
2022-11-28T10:48:43.867Z,101038.81
2022-11-28T10:51:22.753Z,101047.50
2022-11-28T10:54:02.604Z,101043.28
2022-11-28T10:56:39.490Z,101031.59
2022-11-28T10:59:14.275Z,101030.50
2022-11-28T11:01:48.835Z,101032.72
2022-11-28T11:04:22.641Z,101038.94
2022-11-28T11:07:11.402Z,101028.06
2022-11-28T11:09:45.960Z,101035.63
2022-11-28T11:12:18.935Z,101039.06
2022-11-28T11:14:48.946Z,101032.84
2022-11-28T11:17:35.490Z,101038.06
2022-11-28T11:20:05.586Z,101034.28
2022-11-28T11:22:37.728Z,101034.94
2022-11-28T11:25:09.802Z,101027.19
2022-11-28T11:27:39.918Z,101021.66
2022-11-28T11:30:20.775Z,101022.63
2022-11-28T11:32:51.777Z,101021.63
2022-11-28T11:35:25.066Z,101016.53
2022-11-28T11:38:18.810Z,101016.75
2022-11-28T11:40:48.627Z,101020.97
2022-11-28T11:43:29.782Z,101017.19
2022-11-28T11:46:10.610Z,101013.50
2022-11-28T11:48:41.646Z,101009.19
2022-11-28T11:51:24.585Z,101003.19
2022-11-28T11:54:07.748Z,100993.22
2022-11-28T11:56:40.001Z,100991.22
2022-11-28T11:59:15.008Z,100982.44
2022-11-28T12:01:45.215Z,100975.13
2022-11-28T12:04:43.794Z,100972.78
2022-11-28T12:07:16.660Z,100965.91
2022-11-28T12:09:53.532Z,100956.81
2022-11-28T12:12:26.083Z,100947.47
2022-11-28T12:14:55.493Z,100940.72
2022-11-28T12:17:48.407Z,100927.72
2022-11-28T12:20:42.276Z,100918.16
2022-11-28T12:23:27.848Z,100904.75
2022-11-28T12:26:04.657Z,100900.66
2022-11-28T12:28:47.444Z,100880.03
2022-11-28T12:31:22.584Z,100865.28
2022-11-28T12:34:01.519Z,100861.84
2022-11-28T12:36:35.097Z,100852.97
2022-11-28T12:39:25.517Z,100842.09
2022-11-28T12:42:15.719Z,100838.78
2022-11-28T12:45:14.879Z,100829.22
2022-11-28T12:47:50.714Z,100808.16
2022-11-28T12:50:27.912Z,100797.53
2022-11-28T12:53:07.752Z,100788.19
2022-11-28T12:55:42.153Z,100785.56
2022-11-28T12:58:16.807Z,100780.00
2022-11-28T13:00:53.622Z,100771.59
2022-11-28T13:03:37.626Z,100774.13
2022-11-28T13:06:17.942Z,100777.22
2022-11-28T13:09:06.574Z,100769.25
2022-11-28T13:11:51.777Z,100768.25
2022-11-28T13:14:32.481Z,100767.81
2022-11-28T13:17:09.232Z,100764.72
2022-11-28T13:19:44.360Z,100760.47
2022-11-28T13:22:19.775Z,100764.81
2022-11-28T13:24:55.794Z,100773.81
2022-11-28T13:27:34.024Z,100773.16
2022-11-28T13:30:16.720Z,100769.81
2022-11-28T13:32:49.682Z,100768.25
2022-11-28T13:35:20.773Z,100762.03
2022-11-28T13:40:50.645Z,100754.72
2022-11-28T13:43:24.918Z,100747.66
2022-11-28T13:45:57.537Z,100752.63
2022-11-28T13:51:43.800Z,100752.06
2022-11-28T13:54:36.924Z,100747.66
2022-11-28T13:57:08.386Z,100749.19
2022-11-28T13:59:38.096Z,100757.50
2022-11-28T14:02:23.041Z,100758.16
2022-11-28T14:04:52.605Z,100769.91
2022-11-28T14:07:30.243Z,100775.78
2022-11-28T14:10:12.865Z,100776.47
2022-11-28T14:12:49.311Z,100787.84
2022-11-28T14:15:29.197Z,100780.56
2022-11-28T14:18:39.163Z,100790.31
2022-11-28T14:21:03.920Z,100796.75
2022-11-28T14:23:43.235Z,100801.84
2022-11-28T14:26:16.066Z,100802.63
2022-11-28T14:28:47.404Z,100793.66
2022-11-28T14:31:29.241Z,100811.13
2022-11-28T14:34:06.012Z,100811.03
2022-11-28T14:36:39.262Z,100813.47
2022-11-28T14:39:13.287Z,100812.34
2022-11-28T14:42:58.851Z,100815.25
2022-11-28T14:45:45.636Z,100830.97
2022-11-28T14:48:31.805Z,100827.28
2022-11-28T14:51:04.175Z,100827.75
2022-11-28T14:53:44.436Z,100825.50
2022-11-28T14:56:26.953Z,100828.84
2022-11-28T14:59:00.309Z,100835.38
2022-11-28T15:01:41.294Z,100838.25
2022-11-28T15:04:23.163Z,100841.13
2022-11-28T15:06:55.907Z,100847.00
2022-11-28T15:09:30.359Z,100850.78
2022-11-28T15:12:11.624Z,100861.97
2022-11-28T15:14:41.609Z,100859.75
2022-11-28T15:17:15.131Z,100866.19
2022-11-28T15:19:48.057Z,100865.28
2022-11-28T15:22:35.828Z,100873.06
2022-11-28T15:25:05.329Z,100875.81
2022-11-28T15:27:34.823Z,100873.63
2022-11-28T15:30:04.544Z,100881.25
2022-11-28T15:32:34.779Z,100891.00
2022-11-28T15:35:12.255Z,100884.50
2022-11-28T15:37:50.083Z,100887.91
2022-11-28T15:40:22.210Z,100887.06
2022-11-28T15:42:52.056Z,100893.72
2022-11-28T15:45:27.241Z,100884.19
2022-11-28T15:47:57.882Z,100880.03
2022-11-28T15:50:28.660Z,100885.34
2022-11-28T15:53:02.545Z,100889.75
2022-11-28T15:55:33.619Z,100885.47
2022-11-28T15:58:13.690Z,100893.66
2022-11-28T16:00:44.687Z,100901.75
2022-11-28T16:03:17.411Z,100896.22
2022-11-28T16:05:47.968Z,100893.78
2022-11-28T16:08:28.676Z,100898.44
2022-11-28T16:10:58.526Z,100915.84
2022-11-28T16:13:28.379Z,100921.97
2022-11-28T16:16:00.089Z,100927.06
2022-11-28T16:18:30.695Z,100926.28
2022-11-28T16:21:01.311Z,100932.94
2022-11-28T16:23:37.943Z,100934.16
2022-11-28T16:26:09.838Z,100938.72
2022-11-28T16:28:40.966Z,100946.84
2022-11-28T16:31:14.365Z,100950.81
2022-11-28T16:33:45.070Z,100947.03
2022-11-28T16:36:22.037Z,100954.13
2022-11-28T16:38:55.657Z,100957.00
2022-11-28T16:41:26.723Z,100967.34
2022-11-28T16:43:58.300Z,100971.22
2022-11-28T16:46:31.747Z,100971.13
2022-11-28T16:49:02.462Z,100974.69
2022-11-28T16:51:37.128Z,100989.31
2022-11-28T16:54:33.992Z,101001.88
2022-11-28T16:57:14.732Z,101008.34
2022-11-28T16:59:44.848Z,101012.41
2022-11-28T17:02:18.845Z,101010.28
2022-11-28T17:04:49.872Z,101010.81
2022-11-28T17:07:21.709Z,101012.72
2022-11-28T17:09:53.806Z,101012.47
2022-11-28T17:12:27.414Z,101021.03
2022-11-28T17:14:58.378Z,101018.78
2022-11-28T17:17:28.286Z,101014.34
2022-11-28T17:19:57.740Z,101014.56
2022-11-28T17:22:29.118Z,101010.22
2022-11-28T17:25:03.358Z,101009.13
2022-11-28T17:27:33.044Z,101014.88
2022-11-28T17:30:02.556Z,101014.66
2022-11-28T17:32:32.016Z,101011.66
2022-11-28T17:35:03.997Z,101008.34
2022-11-28T17:37:33.486Z,101004.00
2022-11-28T17:40:18.163Z,101008.78
2022-11-28T17:42:47.646Z,101010.41
2022-11-28T17:45:17.879Z,101004.31
2022-11-28T17:47:47.400Z,101007.88
2022-11-28T17:50:17.623Z,101003.31
2022-11-28T17:52:47.449Z,101005.22
2022-11-28T17:55:20.708Z,101008.63
2022-11-28T17:57:50.212Z,101010.75
2022-11-28T18:00:20.047Z,101010.53
2022-11-28T18:02:49.525Z,101015.97
2022-11-28T18:05:19.212Z,101017.75
2022-11-28T18:07:48.711Z,101015.84
2022-11-28T18:10:21.121Z,101011.13
2022-11-28T18:12:50.638Z,101012.78
2022-11-28T18:15:20.159Z,101020.56
2022-11-28T18:17:49.661Z,101021.84
2022-11-28T18:20:20.021Z,101019.19
2022-11-28T18:22:49.809Z,101014.75
2022-11-28T18:25:21.903Z,101019.16
2022-11-28T18:27:51.476Z,101012.88
2022-11-28T18:30:21.228Z,101024.84
2022-11-28T18:32:50.656Z,101020.53
2022-11-28T18:35:20.191Z,101024.19
2022-11-28T18:37:49.691Z,101026.97
2022-11-28T18:40:21.810Z,101028.25
2022-11-28T18:42:51.301Z,101028.72
2022-11-28T18:45:20.853Z,101030.50
2022-11-28T18:47:52.191Z,101024.06
2022-11-28T18:50:24.275Z,101042.78
2022-11-28T18:52:54.418Z,101046.44
2022-11-28T18:55:26.759Z,101041.72
2022-11-28T18:57:56.245Z,101041.06
2022-11-28T19:00:25.982Z,101043.38
2022-11-28T19:02:57.199Z,101045.41
2022-11-28T19:05:26.656Z,101047.06
2022-11-28T19:07:56.130Z,101042.72
2022-11-28T19:10:28.251Z,101043.63
2022-11-28T19:12:57.718Z,101043.72
2022-11-28T19:15:27.189Z,101045.81
2022-11-28T19:17:56.752Z,101039.50
2022-11-28T19:20:26.663Z,101045.31
2022-11-28T19:22:56.108Z,101051.97
2022-11-28T19:25:28.094Z,101053.53
2022-11-28T19:27:57.587Z,101059.75
2022-11-28T19:30:26.983Z,101064.97
2022-11-28T19:32:58.613Z,101065.06
2022-11-28T19:35:28.057Z,101064.44
2022-11-28T19:37:57.537Z,101066.31
2022-11-28T19:40:29.583Z,101064.91
2022-11-28T19:42:59.104Z,101064.16
2022-11-28T19:45:28.643Z,101069.94
2022-11-28T19:47:58.215Z,101068.03
2022-11-28T19:50:27.659Z,101071.63
2022-11-28T19:52:57.193Z,101072.88
2022-11-28T19:55:29.270Z,101081.06
2022-11-28T19:57:58.798Z,101084.66
2022-11-28T20:00:28.332Z,101080.78
2022-11-28T20:02:57.815Z,101082.38
2022-11-28T20:05:27.251Z,101099.31
2022-11-28T20:07:58.695Z,101105.13
2022-11-28T20:10:31.428Z,101106.25
2022-11-28T20:13:00.964Z,101120.88
2022-11-28T20:15:30.398Z,101120.13
2022-11-28T20:17:59.868Z,101129.09
2022-11-28T20:20:29.309Z,101132.06
2022-11-28T20:22:59.941Z,101144.75
2022-11-28T20:25:33.233Z,101147.53
2022-11-28T20:28:02.753Z,101150.72
2022-11-28T20:30:32.254Z,101151.50
2022-11-28T20:33:01.779Z,101151.84
2022-11-28T20:35:31.251Z,101152.28
2022-11-28T20:38:00.766Z,101154.03
2022-11-28T20:40:32.820Z,101159.28
2022-11-28T20:43:02.389Z,101153.97
2022-11-28T20:45:31.943Z,101156.34
2022-11-28T20:48:01.856Z,101150.59
2022-11-28T20:50:31.399Z,101155.03
2022-11-28T20:53:00.881Z,101153.81
2022-11-28T20:55:33.000Z,101149.06
2022-11-28T20:58:02.506Z,101149.63
2022-11-28T21:00:31.979Z,101156.13
2022-11-28T21:03:01.378Z,101157.88
2022-11-28T21:05:30.952Z,101163.47
2022-11-28T21:08:00.558Z,101163.13
2022-11-28T21:10:31.991Z,101161.78
2022-11-28T21:13:04.139Z,101160.97
2022-11-28T21:15:33.748Z,101163.06
2022-11-28T21:18:03.801Z,101162.69
2022-11-28T21:20:33.302Z,101158.34
2022-11-28T21:23:02.713Z,101170.28
2022-11-28T21:25:32.096Z,101172.97
2022-11-28T21:28:04.092Z,101176.84
2022-11-28T21:30:33.785Z,101170.41
2022-11-28T21:33:03.173Z,101178.16
2022-11-28T21:35:32.618Z,101173.06
2022-11-28T21:38:02.079Z,101176.38
2022-11-28T21:40:31.571Z,101173.81
2022-11-28T21:43:03.760Z,101177.75
2022-11-28T21:45:33.239Z,101178.00
2022-11-28T21:48:02.667Z,101177.34
2022-11-28T21:50:32.088Z,101173.31
2022-11-28T21:53:01.546Z,101181.69
2022-11-28T21:55:31.043Z,101181.09
2022-11-28T21:58:00.591Z,101180.56
2022-11-28T22:00:52.799Z,101180.63
2022-11-28T22:03:23.270Z,101182.34
2022-11-28T22:05:52.876Z,101182.75
2022-11-28T22:08:22.527Z,101185.47
2022-11-28T22:10:52.140Z,101181.75
2022-11-28T22:13:21.629Z,101182.75
2022-11-28T22:15:53.771Z,101186.34
2022-11-28T22:18:23.239Z,101187.06
2022-11-28T22:20:53.110Z,101186.41
2022-11-28T22:23:22.858Z,101195.56
2022-11-28T22:25:55.340Z,101193.81
2022-11-28T22:28:24.777Z,101190.47
2022-11-28T22:30:56.955Z,101187.97
2022-11-28T22:33:26.564Z,101194.56
2022-11-28T22:35:56.075Z,101189.09
2022-11-28T22:38:26.530Z,101195.19
2022-11-28T22:40:56.034Z,101192.63
2022-11-28T22:43:25.596Z,101190.75
2022-11-28T22:46:01.042Z,101196.44
2022-11-28T22:48:31.511Z,101195.97
2022-11-28T22:51:01.291Z,101201.53
2022-11-28T22:53:30.836Z,101193.22
2022-11-28T22:56:05.302Z,101193.78
2022-11-28T22:58:42.335Z,101185.22
2022-11-28T23:01:17.369Z,101193.06
2022-11-28T23:03:47.529Z,101200.75
2022-11-28T23:06:19.316Z,101200.63
2022-11-28T23:08:49.161Z,101194.47
2022-11-28T23:11:21.413Z,101200.03
2022-11-28T23:13:52.014Z,101200.34
2022-11-28T23:16:25.736Z,101202.81
2022-11-28T23:18:56.472Z,101193.59
2022-11-28T23:21:27.205Z,101197.47
2022-11-28T23:23:56.704Z,101196.94
2022-11-28T23:26:27.442Z,101205.59
2022-11-28T23:28:57.247Z,101198.19
2022-11-28T23:31:31.383Z,101206.53
2022-11-28T23:34:01.526Z,101206.00
2022-11-28T23:36:36.989Z,101207.53
2022-11-28T23:39:12.088Z,101211.03
2022-11-28T23:41:41.562Z,101218.63
2022-11-28T23:44:12.790Z,101226.69
2022-11-28T23:46:45.602Z,101216.38
2022-11-28T23:49:15.489Z,101221.84
2022-11-28T23:51:44.980Z,101217.25
2022-11-28T23:54:14.954Z,101217.06
2022-11-28T23:56:44.982Z,101223.56
2022-11-28T23:59:15.142Z,101216.59
